Time;durP1;ratioP1;P1;durP2;ratioP2;P2;SDS_P1;SDS_P2;PMS_P1;PMS_P2;Temp;Humidity;BMP_temperature;BMP_pressure;BME280_temperature;BME280_humidity;BME280_pressure;Samples;Min_cycle;Max_cycle;Signal;HPM_P1;HPM_P2
2023/04/20 04:17:06;;;;;;;34.22;18.37;;;;;;;5.35;100.00;100220.25;5562923;32;165645;-86
2023/04/20 04:20:12;;;;;;;35.33;19.25;;;;;;;5.37;100.00;100222.81;5549807;32;34010;-86
2023/04/20 04:23:15;;;;;;;31.75;18.62;;;;;;;5.45;100.00;100228.72;5550464;32;33813;-86
2023/04/20 04:26:23;;;;;;;30.92;18.83;;;;;;;5.56;100.00;100227.50;5545070;32;32201;-86
2023/04/20 04:29:26;;;;;;;30.45;17.17;;;;;;;5.67;100.00;100228.03;5544519;32;34705;-84
2023/04/20 04:32:33;;;;;;;25.88;16.17;;;;;;;5.79;100.00;100229.41;5545189;32;34367;-85
2023/04/20 04:35:42;;;;;;;25.92;16.00;;;;;;;5.94;100.00;100220.16;5544582;32;33775;-88
2023/04/20 04:38:46;;;;;;;24.80;15.82;;;;;;;6.13;100.00;100219.56;5545843;32;33694;-89
2023/04/20 04:41:50;;;;;;;23.98;14.82;;;;;;;6.27;100.00;100219.09;5546337;32;34266;-88
2023/04/20 04:44:55;;;;;;;24.85;15.45;;;;;;;6.41;100.00;100215.97;5537594;32;34033;-87
2023/04/20 04:47:58;;;;;;;26.40;15.98;;;;;;;6.47;100.00;100221.03;5547618;32;34006;-84
2023/04/20 04:51:02;;;;;;;22.45;15.10;;;;;;;6.50;100.00;100220.06;5548763;32;33716;-85
2023/04/20 04:54:05;;;;;;;22.70;15.50;;;;;;;6.67;100.00;100222.97;5548204;32;34104;-85
2023/04/20 04:57:08;;;;;;;25.60;15.25;;;;;;;6.94;100.00;100224.66;5548299;32;34545;-83
2023/04/20 05:00:11;;;;;;;23.95;14.65;;;;;;;7.15;100.00;100230.91;5547709;32;33966;-84
2023/04/20 05:03:15;;;;;;;20.85;14.55;;;;;;;7.33;100.00;100231.13;5547794;32;33869;-84
2023/04/20 05:06:17;;;;;;;21.60;15.25;;;;;;;7.52;100.00;100233.91;5547446;32;33571;-84
2023/04/20 05:09:20;;;;;;;20.67;14.65;;;;;;;7.80;100.00;100231.00;5548351;32;34053;-83
2023/04/20 05:12:24;;;;;;;23.55;14.73;;;;;;;7.95;100.00;100232.16;5548021;32;33886;-85
2023/04/20 05:15:27;;;;;;;20.77;14.43;;;;;;;8.30;100.00;100233.41;5547703;32;34028;-85
2023/04/20 05:18:30;;;;;;;20.15;13.57;;;;;;;8.83;100.00;100237.31;5545865;32;34249;-84
2023/04/20 05:21:33;;;;;;;16.05;11.32;;;;;;;10.07;100.00;100238.56;5549100;32;34261;-85
2023/04/20 05:24:36;;;;;;;14.27;10.02;;;;;;;11.52;100.00;100246.16;5548074;32;33880;-85
2023/04/20 05:27:39;;;;;;;13.52;9.63;;;;;;;12.75;100.00;100247.94;5538137;32;33667;-85
2023/04/20 05:30:41;;;;;;;12.48;9.43;;;;;;;13.93;100.00;100252.19;5535196;32;34499;-85
2023/04/20 05:33:45;;;;;;;13.90;9.98;;;;;;;14.25;99.03;100249.16;5536198;32;33828;-85
2023/04/20 05:36:47;;;;;;;14.82;9.45;;;;;;;14.22;96.88;100257.37;5541575;32;34016;-86
2023/04/20 05:39:50;;;;;;;16.20;11.40;;;;;;;13.88;98.02;100266.66;5541890;32;35187;-86
2023/04/20 05:42:53;;;;;;;16.40;10.70;;;;;;;13.67;97.86;100260.91;5537413;32;34058;-86
2023/04/20 05:45:56;;;;;;;14.30;10.77;;;;;;;13.91;96.80;100260.28;5535405;32;34132;-86
2023/04/20 05:48:59;;;;;;;12.65;10.23;;;;;;;14.88;93.35;100261.88;5533288;32;34061;-86
2023/04/20 05:52:02;;;;;;;14.52;10.55;;;;;;;16.30;84.22;100261.44;5534324;32;34657;-85
2023/04/20 05:55:05;;;;;;;18.48;11.32;;;;;;;16.84;78.30;100269.84;5531793;32;34540;-85
2023/04/20 05:58:07;;;;;;;13.45;10.40;;;;;;;17.65;78.28;100274.25;5539467;32;33678;-86
2023/04/20 06:01:10;;;;;;;17.20;11.57;;;;;;;17.55;72.05;100278.66;5546057;32;33881;-86
2023/04/20 06:04:13;;;;;;;15.73;11.45;;;;;;;17.42;74.05;100275.25;5537083;32;34580;-86
2023/04/20 06:07:16;;;;;;;15.02;10.68;;;;;;;17.20;73.43;100274.31;5524293;32;33962;-86
2023/04/20 06:10:19;;;;;;;17.42;11.55;;;;;;;17.09;71.36;100278.69;5524857;32;33824;-87
2023/04/20 06:13:22;;;;;;;18.95;11.38;;;;;;;17.06;73.43;100275.41;5519181;32;33984;-85
2023/04/20 06:16:25;;;;;;;15.63;11.15;;;;;;;17.72;72.20;100273.75;5525024;32;33159;-86
2023/04/20 06:19:28;;;;;;;14.63;10.48;;;;;;;17.96;69.97;100283.44;5529109;32;33723;-86
2023/04/20 06:22:31;;;;;;;12.90;9.77;;;;;;;17.27;70.16;100280.87;5536819;32;34576;-85
2023/04/20 06:25:37;;;;;;;10.52;8.95;;;;;;;16.99;72.22;100277.66;5535612;32;34567;-85
2023/04/20 06:28:41;;;;;;;12.37;8.02;;;;;;;17.25;71.07;100280.13;5530730;32;33666;-86
2023/04/20 06:31:44;;;;;;;9.75;8.75;;;;;;;18.14;66.77;100283.75;5529794;32;33894;-85
2023/04/20 06:34:47;;;;;;;12.27;8.40;;;;;;;19.11;61.64;100281.91;5541723;32;34584;-87
2023/04/20 06:37:50;;;;;;;13.73;8.80;;;;;;;19.98;55.50;100282.31;5534618;32;33819;-87
2023/04/20 06:40:53;;;;;;;14.75;8.48;;;;;;;20.02;53.64;100281.03;5534464;32;34699;-87
2023/04/20 06:43:56;;;;;;;12.98;8.95;;;;;;;21.59;48.20;100281.69;5536708;32;33898;-87
2023/04/20 06:46:58;;;;;;;11.48;8.05;;;;;;;22.04;46.20;100279.16;5532412;32;34686;-86
2023/04/20 06:50:06;;;;;;;31.60;8.80;;;;;;;22.18;45.92;100280.47;5530261;32;34531;-86
2023/04/20 06:53:09;;;;;;;16.58;8.00;;;;;;;23.15;41.82;100277.78;5525473;32;33246;-86
2023/04/20 06:56:12;;;;;;;12.98;7.85;;;;;;;23.26;41.71;100281.22;5526332;32;34218;-90
2023/04/20 06:59:16;;;;;;;8.85;7.15;;;;;;;23.48;40.93;100279.81;5525445;32;32956;-91
2023/04/20 07:02:20;;;;;;;10.38;7.32;;;;;;;24.26;38.87;100281.50;5530352;32;34425;-92
2023/04/20 07:05:23;;;;;;;9.60;7.30;;;;;;;23.37;40.19;100280.97;5532062;32;34951;-87
2023/04/20 07:08:25;;;;;;;27.02;8.73;;;;;;;21.89;41.42;100287.78;5532986;32;34626;-86
2023/04/20 07:11:28;;;;;;;9.48;8.43;;;;;;;20.07;46.43;100277.94;5526158;32;33782;-89
2023/04/20 07:14:31;;;;;;;13.43;7.93;;;;;;;19.72;47.09;100279.28;5529145;32;34142;-89
2023/04/20 07:21:26;;;;;;;9.55;7.70;;;;;;;21.07;44.24;100279.53;4129061;26;20107;-86
2023/04/20 07:24:28;;;;;;;8.80;7.37;;;;;;;21.42;44.63;100277.91;5508518;32;32914;-86
2023/04/20 07:27:36;;;;;;;9.40;8.30;;;;;;;21.41;42.27;100278.94;5509521;32;33908;-86
2023/04/20 07:30:39;;;;;;;8.77;7.87;;;;;;;20.97;42.03;100285.78;5513844;32;33676;-86
2023/04/20 07:33:42;;;;;;;9.07;7.80;;;;;;;19.80;45.57;100280.28;5512803;32;34762;-87
2023/04/20 07:36:45;;;;;;;10.07;7.40;;;;;;;20.22;45.41;100283.75;5513997;32;34094;-87
2023/04/20 07:39:50;;;;;;;8.35;7.50;;;;;;;21.00;43.34;100290.88;5509489;32;33504;-87
2023/04/20 07:42:53;;;;;;;8.63;7.72;;;;;;;21.38;42.60;100285.47;5523796;32;34332;-87
2023/04/20 07:45:55;;;;;;;9.25;7.82;;;;;;;21.17;42.03;100283.00;5519673;32;33658;-86
2023/04/20 07:48:58;;;;;;;8.52;7.53;;;;;;;20.66;43.63;100285.97;5515602;32;33713;-87
2023/04/20 07:52:01;;;;;;;10.23;7.90;;;;;;;20.09;44.73;100278.63;5512074;32;33464;-87
2023/04/20 07:55:18;;;;;;;11.45;7.40;;;;;;;21.07;41.89;100280.34;5520242;32;35275;-86
2023/04/20 07:58:20;;;;;;;8.88;7.30;;;;;;;21.64;41.60;100286.62;5510217;32;34318;-87
2023/04/20 08:01:27;;;;;;;9.48;7.43;;;;;;;21.03;41.37;100281.66;5518995;32;34236;-87
2023/04/20 08:04:29;;;;;;;8.70;7.75;;;;;;;21.86;42.79;100282.69;5517854;32;34561;-87
2023/04/20 08:07:33;;;;;;;7.80;7.00;;;;;;;21.53;40.72;100287.69;5518949;32;34275;-86
2023/04/20 08:10:36;;;;;;;9.40;7.22;;;;;;;21.62;40.95;100285.94;5521053;32;34099;-86
2023/04/20 08:13:40;;;;;;;8.35;7.37;;;;;;;20.82;40.90;100284.53;5523233;32;34296;-86
2023/04/20 08:16:43;;;;;;;7.18;6.20;;;;;;;20.79;41.65;100285.66;5523546;32;34127;-86
2023/04/20 08:19:45;;;;;;;8.75;7.37;;;;;;;20.83;39.48;100281.66;5532748;32;34689;-86
2023/04/20 08:22:49;;;;;;;11.60;7.10;;;;;;;21.80;39.34;100283.28;5524318;32;34174;-86
2023/04/20 08:25:53;;;;;;;9.98;6.85;;;;;;;22.23;39.92;100288.97;5519778;32;34048;-91
2023/04/20 08:28:56;;;;;;;8.00;6.50;;;;;;;22.83;39.66;100279.28;5529337;32;34073;-92
2023/04/20 08:31:59;;;;;;;8.68;6.70;;;;;;;23.29;39.12;100283.59;5513770;32;34112;-92
2023/04/20 08:35:03;;;;;;;12.40;7.28;;;;;;;23.20;37.36;100280.00;5520153;32;34159;-91
2023/04/20 08:38:06;;;;;;;9.57;7.30;;;;;;;22.16;39.17;100286.00;5517005;32;33690;-88
2023/04/20 08:41:13;;;;;;;8.80;6.93;;;;;;;23.20;37.86;100276.44;5509840;32;34016;-86
2023/04/20 08:44:16;;;;;;;11.57;7.07;;;;;;;22.91;39.44;100273.09;5510125;32;34906;-87
2023/04/20 08:47:20;;;;;;;9.13;6.93;;;;;;;23.25;36.55;100271.41;5522888;32;34252;-88
2023/04/20 08:50:23;;;;;;;8.75;6.72;;;;;;;24.11;35.48;100270.50;5511597;32;33697;-87
2023/04/20 08:53:26;;;;;;;9.13;7.05;;;;;;;23.92;35.66;100277.87;5520986;32;33993;-87
2023/04/20 08:56:42;;;;;;;10.50;6.90;;;;;;;24.11;34.36;100278.63;5513437;32;34595;-87
2023/04/20 08:59:47;;;;;;;9.43;7.07;;;;;;;24.60;34.20;100280.50;5511846;32;34201;-87
2023/04/20 09:02:53;;;;;;;8.30;6.62;;;;;;;24.50;35.03;100275.25;5511548;32;33840;-86
2023/04/20 09:05:56;;;;;;;7.93;6.20;;;;;;;24.80;35.00;100274.72;5510564;32;34654;-87
2023/04/20 09:08:59;;;;;;;8.02;6.47;;;;;;;24.11;35.38;100279.47;5512240;32;34118;-86
2023/04/20 09:12:05;;;;;;;6.90;6.18;;;;;;;24.04;35.82;100275.72;5518868;32;33862;-87
2023/04/20 09:15:09;;;;;;;12.65;6.45;;;;;;;24.71;35.25;100273.88;5526635;32;33899;-87
2023/04/20 09:18:13;;;;;;;11.65;6.47;;;;;;;24.50;34.72;100265.25;5516553;32;33757;-85
2023/04/20 09:21:16;;;;;;;7.80;6.80;;;;;;;24.33;35.59;100272.53;5531168;32;33596;-86
2023/04/20 09:24:20;;;;;;;7.60;6.22;;;;;;;23.98;35.32;100266.38;5518488;32;34023;-86
2023/04/20 09:27:25;;;;;;;7.68;5.82;;;;;;;23.41;36.55;100271.50;5527112;32;33751;-85
2023/04/20 09:30:37;;;;;;;6.22;5.45;;;;;;;23.26;35.07;100268.53;5520502;32;33971;-86
2023/04/20 09:33:40;;;;;;;6.18;5.57;;;;;;;24.48;33.36;100261.88;5518924;32;34129;-86
2023/04/20 09:36:46;;;;;;;8.27;6.22;;;;;;;24.54;31.81;100260.31;5519434;32;34162;-86
2023/04/20 09:39:49;;;;;;;5.93;5.32;;;;;;;23.57;33.17;100269.03;5528849;32;34594;-86
2023/04/20 09:42:53;;;;;;;7.32;5.90;;;;;;;24.20;32.97;100272.22;5533144;32;33921;-86
2023/04/20 09:45:56;;;;;;;7.47;5.30;;;;;;;24.99;31.80;100268.91;5538920;32;34147;-85
2023/04/20 09:49:02;;;;;;;6.00;5.40;;;;;;;25.30;32.12;100262.69;5521277;32;35049;-85
2023/04/20 09:52:05;;;;;;;5.93;5.43;;;;;;;25.03;33.33;100267.56;5516827;32;34217;-85
2023/04/20 09:55:09;;;;;;;7.37;5.47;;;;;;;23.34;32.88;100262.34;5527827;32;34017;-87
2023/04/20 09:58:12;;;;;;;8.20;5.47;;;;;;;24.00;32.80;100258.97;5518563;32;33580;-85
2023/04/20 10:01:16;;;;;;;7.90;5.18;;;;;;;25.71;30.25;100263.56;5523241;32;33937;-85
2023/04/20 10:04:19;;;;;;;8.15;5.55;;;;;;;26.28;29.41;100266.06;5530849;32;34588;-85
2023/04/20 10:07:26;;;;;;;6.62;4.75;;;;;;;28.14;27.54;100264.37;5545361;32;35187;-85
2023/04/20 10:10:30;;;;;;;7.78;4.90;;;;;;;28.88;26.10;100266.91;5538398;32;34081;-87
2023/04/20 10:13:32;;;;;;;9.05;5.00;;;;;;;27.27;27.47;100261.50;5524996;32;35136;-89
2023/04/20 10:16:35;;;;;;;5.72;5.10;;;;;;;26.19;29.62;100257.13;5532202;32;35195;-90
2023/04/20 10:19:41;;;;;;;7.32;5.05;;;;;;;24.46;31.05;100238.66;5525526;32;35425;-89
2023/04/20 10:22:43;;;;;;;6.80;5.57;;;;;;;22.22;34.97;100238.59;5523641;32;33822;-86
2023/04/20 10:25:57;;;;;;;7.97;5.10;;;;;;;21.92;36.17;100240.69;5513885;32;34162;-83
2023/04/20 10:29:00;;;;;;;10.50;5.80;;;;;;;21.90;35.35;100240.87;5512518;32;34518;-84
2023/04/20 10:32:04;;;;;;;6.05;5.40;;;;;;;21.54;36.84;100243.50;5513842;32;33655;-84
2023/04/20 10:35:10;;;;;;;7.78;5.72;;;;;;;22.27;35.54;100233.59;5518018;32;33902;-83
2023/04/20 10:38:33;;;;;;;6.35;4.85;;;;;;;23.37;34.99;100231.38;5530356;32;33942;-85
2023/04/20 10:41:36;;;;;;;6.00;5.40;;;;;;;25.38;30.29;100234.69;5513278;32;33591;-82
2023/04/20 10:44:53;;;;;;;10.40;5.70;;;;;;;25.83;29.75;100237.66;5510158;32;34413;-85
2023/04/20 10:47:55;;;;;;;8.18;5.00;;;;;;;24.06;32.15;100220.34;5510825;32;34317;-85
2023/04/20 10:51:08;;;;;;;5.90;4.93;;;;;;;24.58;30.76;100223.72;5511895;32;35241;-85
2023/04/20 10:54:11;;;;;;;6.50;5.20;;;;;;;25.12;31.32;100219.53;5522761;32;33649;-85
2023/04/20 10:57:17;;;;;;;8.50;4.90;;;;;;;24.12;31.53;100209.91;5524415;32;34324;-85
2023/04/20 11:00:23;;;;;;;6.00;4.97;;;;;;;24.37;31.72;100210.72;5513577;32;33554;-85
2023/04/20 11:03:28;;;;;;;9.55;5.45;;;;;;;23.49;32.26;100208.41;5518931;32;33699;-86
2023/04/20 11:06:32;;;;;;;6.45;5.00;;;;;;;23.72;33.00;100199.66;5523588;32;33872;-86
2023/04/20 11:09:37;;;;;;;6.68;5.20;;;;;;;21.86;35.33;100212.47;5517777;32;33995;-86
2023/04/20 11:12:40;;;;;;;8.95;4.70;;;;;;;21.91;35.30;100203.91;5519210;32;34869;-85
2023/04/20 11:15:42;;;;;;;7.10;5.07;;;;;;;23.45;33.65;100201.66;5519889;32;33385;-86
2023/04/20 11:18:50;;;;;;;8.75;5.20;;;;;;;24.99;29.84;100206.50;5524939;32;33977;-86
2023/04/20 11:21:53;;;;;;;7.20;5.57;;;;;;;24.02;31.67;100201.88;5522226;32;34221;-86
2023/04/20 11:25:04;;;;;;;7.15;5.43;;;;;;;23.42;32.19;100196.56;5515173;32;34383;-86
2023/04/20 11:28:07;;;;;;;6.55;4.70;;;;;;;24.08;32.05;100193.97;5524183;32;33820;-86
2023/04/20 11:31:17;;;;;;;15.02;4.90;;;;;;;24.23;31.25;100183.28;5518007;32;34346;-86
2023/04/20 11:34:21;;;;;;;6.07;5.12;;;;;;;23.55;32.66;100196.91;5511852;32;34286;-86
2023/04/20 11:37:24;;;;;;;9.95;6.25;;;;;;;21.81;35.28;100188.66;5514750;32;34997;-87
2023/04/20 11:40:26;;;;;;;5.55;4.80;;;;;;;22.20;34.49;100195.56;5524241;32;34635;-87
2023/04/20 11:43:31;;;;;;;6.72;4.57;;;;;;;22.54;34.55;100185.00;5519045;32;33960;-86
2023/04/20 11:46:36;;;;;;;4.78;4.28;;;;;;;21.91;33.25;100196.66;5524444;32;34151;-86
2023/04/20 11:49:39;;;;;;;5.65;4.47;;;;;;;22.82;32.06;100182.97;5525583;32;34592;-88
2023/04/20 11:52:42;;;;;;;4.75;4.25;;;;;;;22.83;32.40;100181.12;5523548;32;33963;-86
2023/04/20 11:55:45;;;;;;;5.97;4.57;;;;;;;23.01;32.29;100187.28;5514953;32;34334;-86
2023/04/20 11:58:48;;;;;;;5.80;4.55;;;;;;;22.47;32.63;100185.59;5513688;32;33390;-85
2023/04/20 12:01:51;;;;;;;10.77;4.18;;;;;;;21.25;34.31;100179.78;5512168;32;33811;-86
2023/04/20 12:04:54;;;;;;;5.12;4.37;;;;;;;21.36;33.47;100186.78;5515095;32;34159;-86
2023/04/20 12:07:57;;;;;;;6.12;4.37;;;;;;;21.67;34.06;100184.59;5511005;32;33766;-86
2023/04/20 12:11:00;;;;;;;6.10;4.50;;;;;;;22.06;33.92;100171.78;5517614;32;33828;-86
2023/04/20 12:14:03;;;;;;;4.80;4.20;;;;;;;21.52;33.68;100181.59;5510489;32;33975;-85
2023/04/20 12:17:06;;;;;;;6.62;4.40;;;;;;;21.61;33.92;100177.13;5541846;32;33616;-85
2023/04/20 12:20:13;;;;;;;6.65;4.80;;;;;;;21.61;34.83;100168.16;5528271;32;33735;-86
2023/04/20 12:23:16;;;;;;;5.15;4.60;;;;;;;22.34;33.07;100177.91;5528106;32;34877;-86
2023/04/20 12:26:18;;;;;;;7.78;6.20;;;;;;;21.27;33.90;100167.84;5528652;32;33976;-86
2023/04/20 12:29:21;;;;;;;8.85;4.72;;;;;;;21.61;34.85;100174.41;5517335;32;33840;-85
2023/04/20 12:32:24;;;;;;;6.00;4.30;;;;;;;21.44;33.94;100161.75;5524385;32;34489;-85
2023/04/20 12:35:27;;;;;;;5.28;4.00;;;;;;;21.92;33.50;100157.84;5529931;32;33977;-88
2023/04/20 12:38:30;;;;;;;4.80;4.00;;;;;;;21.45;32.63;100167.00;5527095;32;34147;-86
2023/04/20 12:41:33;;;;;;;4.62;3.47;;;;;;;21.58;31.74;100160.38;5545217;32;34085;-85
2023/04/20 12:44:36;;;;;;;3.70;3.40;;;;;;;21.25;30.51;100164.44;5542111;32;35901;-85
2023/04/20 12:47:39;;;;;;;4.40;3.30;;;;;;;21.11;30.12;100156.84;5545533;32;34042;-86
2023/04/20 12:50:41;;;;;;;4.62;3.78;;;;;;;21.13;31.19;100155.69;5536183;32;34087;-85
2023/04/20 12:53:44;;;;;;;6.12;3.75;;;;;;;21.22;31.74;100153.94;5537272;32;34211;-85
2023/04/20 12:56:47;;;;;;;8.85;4.35;;;;;;;20.72;33.63;100155.19;5535376;32;34266;-85
2023/04/20 12:59:50;;;;;;;6.57;4.72;;;;;;;21.37;33.13;100154.28;5534387;32;33468;-84
2023/04/20 13:02:53;;;;;;;5.05;4.53;;;;;;;20.55;36.12;100146.88;5534266;32;34515;-86
2023/04/20 13:05:57;;;;;;;5.50;3.97;;;;;;;21.38;34.74;100141.66;5533262;32;33785;-87
2023/04/20 13:09:02;;;;;;;4.75;4.32;;;;;;;21.14;33.09;100148.47;5533090;32;34615;-85
2023/04/20 13:12:05;;;;;;;4.78;4.37;;;;;;;20.79;33.37;100137.41;5535884;32;33718;-85
2023/04/20 13:15:09;;;;;;;6.22;4.40;;;;;;;20.71;34.88;100146.25;5516420;32;34166;-87
2023/04/20 13:18:14;;;;;;;6.72;4.47;;;;;;;20.51;35.12;100140.06;5514940;32;34008;-86
2023/04/20 13:21:16;;;;;;;4.40;4.00;;;;;;;20.77;35.56;100133.16;5517009;32;34503;-87
2023/04/20 13:24:19;;;;;;;5.03;4.10;;;;;;;21.46;34.83;100124.69;5514522;32;33914;-87
2023/04/20 13:27:22;;;;;;;4.30;3.87;;;;;;;21.50;33.11;100139.56;5539349;32;33935;-87
2023/04/20 13:30:25;;;;;;;5.87;4.20;;;;;;;21.47;33.11;100121.81;5531089;32;34378;-87
2023/04/20 13:33:28;;;;;;;4.57;3.50;;;;;;;21.58;33.69;100123.47;5533050;32;34064;-87
2023/04/20 13:36:32;;;;;;;4.35;3.67;;;;;;;20.89;33.23;100128.44;5532585;32;34152;-87
2023/04/20 13:39:34;;;;;;;5.53;4.20;;;;;;;20.55;34.32;100128.00;5534116;32;34022;-86
2023/04/20 13:42:37;;;;;;;4.45;4.03;;;;;;;20.80;34.48;100132.84;5520493;32;34538;-86
2023/04/20 13:45:40;;;;;;;7.45;3.83;;;;;;;21.07;34.12;100123.94;5536100;32;34666;-86
2023/04/20 13:48:44;;;;;;;4.07;3.60;;;;;;;20.85;33.33;100122.50;5534961;32;35289;-88
2023/04/20 13:51:47;;;;;;;4.03;3.70;;;;;;;20.22;33.87;100115.94;5519113;32;35222;-90
2023/04/20 13:54:50;;;;;;;4.12;3.72;;;;;;;20.34;34.29;100117.44;5519160;32;33540;-90
2023/04/20 13:57:52;;;;;;;4.57;3.35;;;;;;;19.65;34.96;100115.69;5519769;32;33781;-90
2023/04/20 14:00:55;;;;;;;4.05;3.65;;;;;;;20.11;34.41;100101.63;5517985;32;34194;-86
2023/04/20 14:03:58;;;;;;;3.78;3.47;;;;;;;20.44;33.98;100115.59;5529393;32;34056;-86
2023/04/20 14:07:01;;;;;;;6.35;3.87;;;;;;;20.19;35.06;100107.16;5535043;32;35032;-86
2023/04/20 14:10:04;;;;;;;5.80;4.10;;;;;;;19.76;34.56;100101.22;5535835;32;33974;-86
2023/04/20 14:13:07;;;;;;;4.65;3.60;;;;;;;19.56;35.42;100103.06;5528693;32;34311;-86
2023/04/20 14:16:13;;;;;;;4.25;3.78;;;;;;;20.25;34.88;100097.63;5532493;32;34135;-86
2023/04/20 14:19:16;;;;;;;7.55;3.40;;;;;;;20.52;33.92;100098.66;5515408;32;33924;-85
2023/04/20 14:22:19;;;;;;;3.87;3.45;;;;;;;20.24;34.12;100092.38;5515022;32;34148;-86
2023/04/20 14:25:21;;;;;;;3.55;3.22;;;;;;;20.39;34.50;100095.44;5514213;32;34255;-86
2023/04/20 14:28:24;;;;;;;4.07;3.70;;;;;;;20.65;34.58;100087.53;5515897;32;34590;-85
2023/04/20 14:31:27;;;;;;;3.78;3.45;;;;;;;20.10;34.77;100086.47;5515355;32;34353;-86
2023/04/20 14:34:30;;;;;;;4.00;3.70;;;;;;;20.22;34.44;100089.84;5514284;32;33914;-86
2023/04/20 14:37:33;;;;;;;4.72;3.47;;;;;;;20.07;35.29;100084.09;5516906;32;34063;-86
2023/04/20 14:40:36;;;;;;;4.22;3.80;;;;;;;19.79;35.75;100082.13;5516670;32;34381;-87
2023/04/20 14:43:39;;;;;;;6.43;3.53;;;;;;;19.98;35.89;100082.25;5517873;32;33854;-86
2023/04/20 14:46:42;;;;;;;4.18;3.78;;;;;;;19.90;35.60;100082.94;5514162;32;33957;-86
2023/04/20 14:49:45;;;;;;;5.40;3.75;;;;;;;19.80;34.92;100086.50;5510053;32;33593;-86
2023/04/20 14:52:48;;;;;;;4.65;3.58;;;;;;;19.71;35.98;100083.84;5510407;32;34975;-86
2023/04/20 14:55:50;;;;;;;4.22;3.40;;;;;;;20.08;36.14;100072.31;5512217;32;34772;-86
2023/04/20 14:58:54;;;;;;;5.32;3.50;;;;;;;19.49;36.30;100069.69;5510571;32;33866;-86
2023/04/20 15:01:57;;;;;;;4.85;3.45;;;;;;;19.44;36.37;100070.09;5511204;32;33697;-86
2023/04/20 15:05:05;;;;;;;4.65;3.80;;;;;;;19.65;36.13;100066.41;5511243;32;34048;-86
2023/04/20 15:08:12;;;;;;;3.65;3.35;;;;;;;19.49;36.06;100070.53;5514547;32;34368;-86
2023/04/20 15:11:14;;;;;;;4.47;3.67;;;;;;;19.44;36.39;100063.87;5512142;32;33637;-86
2023/04/20 15:14:17;;;;;;;6.35;3.72;;;;;;;19.67;36.17;100069.81;5511189;32;33776;-86
2023/04/20 15:17:20;;;;;;;5.93;3.50;;;;;;;19.74;36.17;100064.69;5514269;32;34504;-87
2023/04/20 15:20:23;;;;;;;4.03;3.62;;;;;;;19.85;35.71;100078.00;5516445;32;33865;-86
2023/04/20 15:23:26;;;;;;;4.40;3.78;;;;;;;19.93;35.46;100075.41;5511175;32;33741;-86
2023/04/20 15:26:28;;;;;;;4.75;3.33;;;;;;;20.15;35.27;100069.88;5511408;32;33694;-86
2023/04/20 15:29:32;;;;;;;4.05;2.97;;;;;;;20.19;35.52;100079.38;5511748;32;34153;-86
2023/04/20 15:32:34;;;;;;;3.83;3.42;;;;;;;20.72;34.77;100075.16;5516673;32;34556;-86
